Time;durP1;ratioP1;P1;durP2;ratioP2;P2;SDS_P1;SDS_P2;PMS_P1;PMS_P2;Temp;Humidity;BMP_temperature;BMP_pressure;BME280_temperature;BME280_humidity;BME280_pressure;Samples;Min_cycle;Max_cycle;Signal;HPM_P1;HPM_P2
2021/01/12 00:00:31;;;;;;;29.97;15.50;;;-4.40;99.90;;;;;;4757558;30;20056;-77
2021/01/12 00:03:03;;;;;;;41.58;19.90;;;-4.40;99.90;;;;;;4771485;30;20304;-77
2021/01/12 00:05:34;;;;;;;46.50;20.42;;;-4.40;99.90;;;;;;4757521;30;20434;-77
2021/01/12 00:08:01;;;;;;;44.78;20.58;;;-4.30;99.90;;;;;;4769618;30;20079;-77
2021/01/12 00:10:32;;;;;;;39.95;21.10;;;-4.30;99.90;;;;;;4741772;30;20420;-77
2021/01/12 00:13:04;;;;;;;40.10;20.85;;;-4.30;99.90;;;;;;4764870;30;20050;-77
2021/01/12 00:15:35;;;;;;;47.33;22.38;;;-4.30;99.90;;;;;;4742741;30;20062;-76
2021/01/12 00:18:06;;;;;;;42.35;20.27;;;-4.30;99.90;;;;;;4752884;30;20048;-77
2021/01/12 00:20:37;;;;;;;46.83;20.20;;;-4.30;99.90;;;;;;4747332;30;20055;-77
2021/01/12 00:23:08;;;;;;;45.13;21.63;;;-4.30;99.90;;;;;;4775629;30;20048;-77
2021/01/12 00:25:39;;;;;;;47.85;21.38;;;-4.30;99.90;;;;;;4753172;30;20047;-77
2021/01/12 00:28:11;;;;;;;45.22;21.08;;;-4.20;99.90;;;;;;4756721;30;20050;-77
2021/01/12 00:30:42;;;;;;;38.30;20.73;;;-4.20;99.90;;;;;;4753512;30;20048;-77
2021/01/12 00:33:13;;;;;;;41.78;20.17;;;-4.20;99.90;;;;;;4740213;30;20040;-77
2021/01/12 00:35:44;;;;;;;43.13;22.75;;;-4.20;99.90;;;;;;4754278;30;20044;-77
2021/01/12 00:38:15;;;;;;;41.60;20.52;;;-4.20;99.90;;;;;;4740132;30;20048;-77
2021/01/12 00:40:46;;;;;;;41.15;20.98;;;-4.20;99.90;;;;;;4755056;30;20054;-76
2021/01/12 00:43:19;;;;;;;42.40;22.08;;;-4.20;99.90;;;;;;4740246;30;20070;-77
2021/01/12 00:45:50;;;;;;;40.13;20.33;;;-4.20;99.90;;;;;;4739833;30;20055;-77
2021/01/12 00:48:21;;;;;;;43.33;23.70;;;-4.20;99.90;;;;;;4739586;30;20427;-77
2021/01/12 00:50:52;;;;;;;38.22;19.42;;;-4.30;99.90;;;;;;4753831;30;20417;-77
2021/01/12 00:53:24;;;;;;;50.55;22.90;;;-4.20;99.90;;;;;;4753450;30;20051;-77
2021/01/12 00:55:55;;;;;;;40.28;19.63;;;-4.20;99.90;;;;;;4739221;30;20048;-77
2021/01/12 00:58:26;;;;;;;44.72;21.13;;;-4.30;99.90;;;;;;4753464;30;20048;-77
2021/01/12 01:00:57;;;;;;;45.40;21.25;;;-4.30;99.90;;;;;;4754674;30;20074;-77
2021/01/12 01:03:28;;;;;;;48.28;23.15;;;-4.30;99.90;;;;;;4739556;30;20047;-77
2021/01/12 01:06:05;;;;;;;42.53;22.20;;;-4.20;99.90;;;;;;4739385;30;20044;-77
2021/01/12 01:08:36;;;;;;;43.53;21.30;;;-4.10;99.90;;;;;;4739467;30;20066;-77
2021/01/12 01:11:07;;;;;;;42.30;19.92;;;-4.20;99.90;;;;;;4754339;30;20377;-77
2021/01/12 01:13:39;;;;;;;39.10;20.08;;;-4.10;99.90;;;;;;4739481;30;20420;-77
2021/01/12 01:16:10;;;;;;;46.85;20.65;;;-4.10;99.90;;;;;;4739155;30;20044;-77
2021/01/12 01:18:42;;;;;;;44.83;21.58;;;-4.00;99.90;;;;;;4769417;30;20048;-77
2021/01/12 01:21:13;;;;;;;46.67;22.15;;;-4.00;99.90;;;;;;4739363;30;20075;-77
2021/01/12 01:23:44;;;;;;;39.50;20.42;;;-4.00;99.90;;;;;;4769107;30;20051;-77
2021/01/12 01:26:17;;;;;;;41.10;21.20;;;-4.00;99.90;;;;;;4739133;30;20134;-77
2021/01/12 01:28:49;;;;;;;41.50;20.75;;;-3.90;99.90;;;;;;4768757;30;20044;-77
2021/01/12 01:31:20;;;;;;;39.17;19.90;;;-3.90;99.90;;;;;;4752882;30;20059;-77
2021/01/12 01:33:51;;;;;;;41.35;21.42;;;-3.90;99.90;;;;;;4768921;30;20061;-77
2021/01/12 01:36:22;;;;;;;40.72;21.40;;;-3.90;99.90;;;;;;4738764;30;20047;-77
2021/01/12 01:38:54;;;;;;;41.78;20.05;;;-4.00;99.90;;;;;;4738694;30;20496;-77
2021/01/12 01:41:25;;;;;;;42.67;20.88;;;-4.00;99.90;;;;;;4738723;30;20056;-77
2021/01/12 01:43:56;;;;;;;42.47;21.92;;;-4.00;99.90;;;;;;4738486;30;20051;-77
2021/01/12 01:46:28;;;;;;;38.90;19.42;;;-4.00;99.90;;;;;;4738843;30;20258;-77
2021/01/12 01:48:59;;;;;;;38.20;19.77;;;-4.00;99.90;;;;;;4752425;30;20060;-77
2021/01/12 01:51:30;;;;;;;38.95;20.80;;;-4.00;99.90;;;;;;4753602;30;20058;-77
2021/01/12 01:54:03;;;;;;;39.55;20.73;;;-3.90;99.90;;;;;;4738539;30;20070;-77
2021/01/12 01:56:34;;;;;;;40.28;18.70;;;-3.90;99.90;;;;;;4738927;30;20051;-77
2021/01/12 01:59:05;;;;;;;42.90;21.23;;;-3.90;99.90;;;;;;4737995;30;20058;-77
2021/01/12 02:01:37;;;;;;;42.75;21.13;;;-3.90;99.90;;;;;;4752235;30;20052;-77
2021/01/12 02:04:26;;;;;;;43.80;20.33;;;-3.90;99.90;;;;;;4737971;30;20052;-77
2021/01/12 02:07:02;;;;;;;43.60;19.52;;;-3.90;99.90;;;;;;4738120;30;20060;-77
2021/01/12 02:09:45;;;;;;;42.33;21.42;;;-3.90;99.90;;;;;;4750987;30;20065;-77
2021/01/12 02:12:23;;;;;;;40.70;19.83;;;-3.90;99.90;;;;;;4752622;30;20050;-77
2021/01/12 02:14:56;;;;;;;44.28;20.50;;;-3.90;99.90;;;;;;4751919;30;20058;-77
2021/01/12 02:17:29;;;;;;;40.35;20.08;;;-3.90;99.90;;;;;;4738013;30;20768;-77
2021/01/12 02:20:01;;;;;;;34.25;18.25;;;-3.90;99.90;;;;;;4737482;30;20044;-77
2021/01/12 02:22:33;;;;;;;38.42;19.38;;;-3.90;99.90;;;;;;4737598;30;20062;-77
2021/01/12 02:25:06;;;;;;;37.95;20.25;;;-3.90;99.90;;;;;;4737417;30;20059;-77
2021/01/12 02:27:37;;;;;;;38.42;20.52;;;-3.90;99.90;;;;;;4751760;30;20449;-77
2021/01/12 02:30:09;;;;;;;44.05;21.52;;;-3.80;99.90;;;;;;4767689;30;20048;-77
2021/01/12 02:32:40;;;;;;;39.42;19.33;;;-3.80;99.90;;;;;;4737847;30;20058;-77
2021/01/12 02:35:07;;;;;;;38.30;19.70;;;-3.80;99.90;;;;;;4736919;30;20436;-78
2021/01/12 02:37:39;;;;;;;38.22;20.40;;;-3.80;99.90;;;;;;4752582;30;20056;-77
2021/01/12 02:40:11;;;;;;;41.95;19.75;;;-3.80;99.90;;;;;;4752036;30;20054;-77
2021/01/12 02:42:43;;;;;;;41.70;22.02;;;-3.70;99.90;;;;;;4737677;30;20054;-77
2021/01/12 02:45:15;;;;;;;41.83;20.93;;;-3.70;99.90;;;;;;4752147;30;20075;-78
2021/01/12 02:47:47;;;;;;;40.05;21.45;;;-3.70;99.90;;;;;;4737469;30;20055;-77
2021/01/12 02:50:18;;;;;;;41.40;20.00;;;-3.60;99.90;;;;;;4751637;30;20056;-78
2021/01/12 02:52:49;;;;;;;44.72;22.25;;;-3.60;99.90;;;;;;4737740;30;20051;-78
2021/01/12 02:55:20;;;;;;;42.00;20.33;;;-3.60;99.90;;;;;;4737677;30;20052;-77
2021/01/12 02:57:52;;;;;;;45.17;21.17;;;-3.60;99.90;;;;;;4737684;30;20047;-77
2021/01/12 03:00:23;;;;;;;43.97;22.10;;;-3.60;99.90;;;;;;4737981;30;20505;-77
2021/01/12 03:02:54;;;;;;;44.53;21.67;;;-3.60;99.90;;;;;;4751845;30;20048;-77
2021/01/12 03:05:25;;;;;;;46.90;22.52;;;-3.60;99.90;;;;;;4737758;30;20052;-77
2021/01/12 03:07:53;;;;;;;48.05;22.20;;;-3.60;99.90;;;;;;4737055;30;20146;-77
2021/01/12 03:10:24;;;;;;;39.03;19.45;;;-3.60;99.90;;;;;;4737384;30;20619;-77
2021/01/12 03:12:56;;;;;;;45.80;21.75;;;-3.60;99.90;;;;;;4737868;30;20066;-77
2021/01/12 03:15:27;;;;;;;46.25;22.02;;;-3.60;99.90;;;;;;4737539;30;20043;-77
2021/01/12 03:17:58;;;;;;;38.40;20.67;;;-3.50;99.90;;;;;;4737279;30;20054;-77
2021/01/12 03:20:29;;;;;;;42.30;20.53;;;-3.50;99.90;;;;;;4740200;30;20504;-77
2021/01/12 03:23:01;;;;;;;40.33;19.58;;;-3.40;99.90;;;;;;4741215;30;20052;-77
2021/01/12 03:25:32;;;;;;;40.57;20.23;;;-3.40;99.90;;;;;;4740989;30;20151;-77
2021/01/12 03:28:04;;;;;;;37.73;19.73;;;-3.40;99.90;;;;;;4740579;30;20055;-77
2021/01/12 03:30:35;;;;;;;38.85;18.85;;;-3.40;99.90;;;;;;4754732;30;20054;-77
2021/01/12 03:33:06;;;;;;;36.28;19.58;;;-3.40;99.90;;;;;;4771062;30;20504;-77
2021/01/12 03:35:37;;;;;;;39.47;20.02;;;-3.40;99.90;;;;;;4740883;30;20063;-77
2021/01/12 03:38:09;;;;;;;34.00;18.27;;;-3.40;99.90;;;;;;4754627;30;20056;-77
2021/01/12 03:40:40;;;;;;;40.17;18.67;;;-3.40;99.90;;;;;;4755450;30;20048;-77
2021/01/12 03:43:12;;;;;;;41.75;20.98;;;-3.40;99.90;;;;;;4755033;30;20048;-77
2021/01/12 03:45:43;;;;;;;35.88;18.40;;;-3.40;99.90;;;;;;4740713;30;20416;-77
2021/01/12 03:48:14;;;;;;;41.90;20.27;;;-3.30;99.90;;;;;;4740694;30;20048;-77
2021/01/12 03:50:45;;;;;;;38.17;19.83;;;-3.30;99.90;;;;;;4755101;30;20052;-77
2021/01/12 03:53:17;;;;;;;37.45;18.85;;;-3.30;99.90;;;;;;4754780;30;20059;-77
2021/01/12 03:55:49;;;;;;;37.25;18.98;;;-3.20;99.90;;;;;;4740641;30;20059;-77
2021/01/12 03:58:20;;;;;;;35.38;18.52;;;-3.20;99.90;;;;;;4754766;30;20374;-77
2021/01/12 04:00:51;;;;;;;36.67;17.38;;;-3.20;99.90;;;;;;4740642;30;20059;-77
2021/01/12 04:03:22;;;;;;;31.30;17.00;;;-3.20;99.90;;;;;;4740986;30;20051;-77
2021/01/12 04:05:53;;;;;;;42.30;21.17;;;-3.20;99.90;;;;;;4755503;30;20055;-77
2021/01/12 04:08:24;;;;;;;42.17;19.27;;;-3.20;99.90;;;;;;4740809;30;20428;-77
2021/01/12 04:10:51;;;;;;;36.55;19.08;;;-3.10;99.90;;;;;;4740378;30;20051;-77
2021/01/12 04:13:22;;;;;;;35.70;18.70;;;-3.20;99.90;;;;;;4740968;30;20047;-77
2021/01/12 04:15:48;;;;;;;38.53;18.23;;;-3.20;99.90;;;;;;4740408;30;20047;-77
2021/01/12 04:18:20;;;;;;;37.55;17.30;;;-3.10;99.90;;;;;;4740712;30;20052;-77
2021/01/12 04:20:51;;;;;;;35.00;17.55;;;-3.10;99.90;;;;;;4756076;30;20048;-77
2021/01/12 04:23:17;;;;;;;36.72;18.92;;;-3.10;99.90;;;;;;4740687;30;20147;-77
2021/01/12 04:25:48;;;;;;;37.13;18.83;;;-3.10;99.90;;;;;;4740535;30;20147;-77
2021/01/12 04:28:20;;;;;;;40.75;20.00;;;-3.10;99.90;;;;;;4740486;30;20083;-77
2021/01/12 04:30:51;;;;;;;32.83;17.17;;;-3.10;99.90;;;;;;4739800;30;20074;-77
2021/01/12 04:33:22;;;;;;;36.33;17.95;;;-3.00;99.90;;;;;;4754747;30;20043;-77
2021/01/12 04:35:53;;;;;;;36.25;17.55;;;-3.10;99.90;;;;;;4740795;30;20051;-77
2021/01/12 04:38:24;;;;;;;32.53;16.25;;;-3.00;99.90;;;;;;4739962;30;20512;-77
2021/01/12 04:40:56;;;;;;;32.85;17.83;;;-3.00;99.90;;;;;;4755186;30;20130;-77
2021/01/12 04:43:27;;;;;;;34.72;18.77;;;-3.00;99.90;;;;;;4754143;30;20052;-77
2021/01/12 04:45:58;;;;;;;30.98;16.80;;;-3.00;99.90;;;;;;4770261;30;20062;-77
2021/01/12 04:48:30;;;;;;;42.65;20.23;;;-3.00;99.90;;;;;;4739671;30;20048;-77
2021/01/12 04:51:09;;;;;;;32.28;16.80;;;-2.90;99.90;;;;;;4739707;30;20061;-77
2021/01/12 04:53:47;;;;;;;36.45;18.33;;;-2.90;99.90;;;;;;4739440;30;20048;-77
2021/01/12 04:56:21;;;;;;;35.58;17.33;;;-2.90;99.90;;;;;;4754514;30;20101;-77
2021/01/12 04:58:53;;;;;;;27.02;12.98;;;-2.90;99.90;;;;;;4739441;30;20126;-77
2021/01/12 05:01:24;;;;;;;36.92;17.55;;;-2.90;99.90;;;;;;4739376;30;20047;-77
2021/01/12 05:03:56;;;;;;;31.73;16.17;;;-2.90;99.90;;;;;;4739457;30;20509;-77
2021/01/12 05:06:27;;;;;;;34.00;16.52;;;-2.90;99.90;;;;;;4769525;30;20051;-77
2021/01/12 05:08:58;;;;;;;34.55;17.75;;;-2.80;99.90;;;;;;4754228;30;20492;-77
2021/01/12 05:11:32;;;;;;;31.30;14.73;;;-2.80;99.90;;;;;;4769223;30;20130;-77
2021/01/12 05:14:05;;;;;;;;;;;-2.80;99.90;;;;;;4739731;30;20051;-77
2021/01/12 05:16:44;;;;;;;30.75;14.25;;;-2.70;99.90;;;;;;4753072;30;19976;-77
2021/01/12 05:19:20;;;;;;;28.45;13.85;;;-2.70;99.90;;;;;;4753121;30;20052;-77
2021/01/12 05:22:15;;;;;;;31.80;16.05;;;-2.70;99.90;;;;;;4738963;30;20060;-77
2021/01/12 05:24:48;;;;;;;29.58;14.98;;;-2.60;99.90;;;;;;4752287;30;20051;-77
2021/01/12 05:27:20;;;;;;;32.45;14.93;;;-2.60;99.90;;;;;;4953487;24;20132;-76
2021/01/12 05:29:51;;;;;;;30.80;16.27;;;-2.60;99.90;;;;;;4727435;30;20051;-76
2021/01/12 05:32:22;;;;;;;26.02;14.30;;;-2.50;99.90;;;;;;4734212;30;20056;-77
2021/01/12 05:34:54;;;;;;;23.48;13.98;;;-2.50;99.90;;;;;;4755901;30;20058;-76
2021/01/12 05:37:26;;;;;;;26.27;14.75;;;-2.40;99.90;;;;;;4765484;30;20047;-76
2021/01/12 05:39:57;;;;;;;29.20;12.95;;;-2.40;99.90;;;;;;4755119;30;20067;-77
2021/01/12 05:42:30;;;;;;;28.48;14.30;;;-2.40;99.90;;;;;;4766593;30;20058;-77
2021/01/12 05:45:02;;;;;;;28.10;13.80;;;-2.40;99.90;;;;;;4752663;30;20051;-76
2021/01/12 05:47:33;;;;;;;24.88;12.25;;;-2.30;99.90;;;;;;4766798;30;20055;-77
2021/01/12 05:50:05;;;;;;;26.15;14.93;;;-2.30;99.90;;;;;;4766676;30;20062;-77
2021/01/12 05:52:42;;;;;;;26.35;13.48;;;-2.30;99.90;;;;;;4752312;30;20520;-77
2021/01/12 05:55:16;;;;;;;22.33;11.90;;;-2.30;99.90;;;;;;4750951;30;20055;-77
2021/01/12 05:57:51;;;;;;;25.70;13.32;;;-2.20;99.90;;;;;;4748684;30;20052;-77
2021/01/12 06:00:19;;;;;;;23.35;13.20;;;-2.20;99.90;;;;;;4748932;30;20108;-76
2021/01/12 06:02:55;;;;;;;24.02;12.30;;;-2.20;99.90;;;;;;4734778;30;20151;-77
2021/01/12 06:05:26;;;;;;;23.13;12.40;;;-2.10;99.90;;;;;;4732680;30;20078;-77
2021/01/12 06:07:57;;;;;;;21.90;12.43;;;-2.00;99.90;;;;;;4748258;30;20055;-76
2021/01/12 06:10:30;;;;;;;18.65;11.02;;;-2.00;99.90;;;;;;4748012;30;20062;-77
2021/01/12 06:13:07;;;;;;;24.23;13.27;;;-1.90;99.90;;;;;;4734507;30;20052;-77
2021/01/12 06:15:42;;;;;;;24.17;12.93;;;-1.90;99.90;;;;;;4748516;30;20381;-76
2021/01/12 06:18:17;;;;;;;22.02;11.95;;;-1.80;99.90;;;;;;4748305;30;20052;-76
2021/01/12 06:20:55;;;;;;;21.20;11.20;;;-1.80;99.90;;;;;;4748493;30;20493;-77
2021/01/12 06:23:46;;;;;;;26.60;12.65;;;-1.80;99.90;;;;;;4749474;30;20428;-77
2021/01/12 06:26:17;;;;;;;23.45;11.45;;;-1.70;99.90;;;;;;4752151;30;20043;-77
2021/01/12 06:28:50;;;;;;;20.88;10.60;;;-1.70;99.90;;;;;;4751461;30;20052;-77
2021/01/12 06:31:23;;;;;;;20.30;10.40;;;-1.60;99.90;;;;;;4744882;30;20044;-76
2021/01/12 06:33:58;;;;;;;22.52;11.95;;;-1.60;99.90;;;;;;4748279;30;20078;-76
2021/01/12 06:36:26;;;;;;;22.92;10.95;;;-1.50;99.90;;;;;;4748484;30;20140;-77
2021/01/12 06:38:57;;;;;;;19.10;10.48;;;-1.50;99.90;;;;;;4747851;30;20044;-77
2021/01/12 06:41:28;;;;;;;19.35;9.80;;;-1.40;99.90;;;;;;4737016;30;20059;-76
2021/01/12 06:44:15;;;;;;;18.70;10.35;;;-1.40;99.90;;;;;;4765355;30;20443;-76
2021/01/12 06:46:42;;;;;;;20.17;10.00;;;-1.40;99.90;;;;;;4747968;30;20477;-77
2021/01/12 06:49:20;;;;;;;18.50;9.85;;;-1.30;99.90;;;;;;4751921;30;20412;-76
2021/01/12 06:52:03;;;;;;;17.08;9.52;;;-1.30;99.90;;;;;;4732593;30;20052;-76
2021/01/12 06:54:38;;;;;;;13.65;9.18;;;-1.20;99.90;;;;;;4720874;30;20058;-77
2021/01/12 06:57:22;;;;;;;15.02;7.20;;;-1.20;99.90;;;;;;4747303;30;20060;-77
2021/01/12 06:59:54;;;;;;;16.02;8.75;;;-1.10;99.90;;;;;;4733243;30;20056;-77
2021/01/12 07:02:29;;;;;;;15.60;8.13;;;-1.10;99.90;;;;;;4749016;30;20052;-76
2021/01/12 07:05:12;;;;;;;14.60;7.85;;;-1.00;99.90;;;;;;4748249;30;20055;-76
2021/01/12 07:07:48;;;;;;;12.50;7.22;;;-1.00;99.90;;;;;;4744652;30;20416;-76
2021/01/12 07:10:21;;;;;;;12.82;7.65;;;-1.00;99.90;;;;;;4762014;30;20431;-76
2021/01/12 07:12:53;;;;;;;12.18;7.25;;;-0.90;99.90;;;;;;4763168;30;20045;-76
2021/01/12 07:15:25;;;;;;;14.50;7.28;;;-0.90;99.90;;;;;;4748048;30;20056;-77
2021/01/12 07:17:53;;;;;;;14.07;7.18;;;-0.90;99.90;;;;;;4747877;30;20048;-77
2021/01/12 07:20:26;;;;;;;13.05;7.03;;;-0.90;99.90;;;;;;4761042;30;20065;-77
2021/01/12 07:23:09;;;;;;;12.63;6.57;;;-0.80;99.90;;;;;;4747923;30;20044;-77
2021/01/12 07:25:40;;;;;;;12.07;6.47;;;-0.80;99.90;;;;;;4748077;30;20496;-77
2021/01/12 07:28:14;;;;;;;13.35;6.93;;;-0.70;99.90;;;;;;4747752;30;20056;-77
2021/01/12 07:30:43;;;;;;;13.43;7.60;;;-0.60;99.90;;;;;;4733236;30;20139;-77
2021/01/12 07:33:17;;;;;;;14.23;7.03;;;-0.60;99.90;;;;;;4747798;30;20055;-76
2021/01/12 07:35:51;;;;;;;15.55;7.32;;;-0.60;99.90;;;;;;4749300;30;20056;-76
2021/01/12 07:38:22;;;;;;;12.45;6.68;;;-0.60;99.90;;;;;;4733424;30;20479;-76
2021/01/12 07:40:49;;;;;;;13.13;6.45;;;-0.50;99.90;;;;;;4733351;30;20506;-77
2021/01/12 07:43:22;;;;;;;14.40;7.18;;;-0.50;99.90;;;;;;4736273;30;20044;-77
2021/01/12 07:45:51;;;;;;;12.45;7.07;;;-0.50;99.90;;;;;;4733153;30;20141;-76
2021/01/12 07:48:17;;;;;;;12.18;6.70;;;-0.50;99.90;;;;;;4733418;30;20084;-77
2021/01/12 07:50:46;;;;;;;11.48;6.68;;;-0.50;99.90;;;;;;4754840;30;20056;-77
2021/01/12 07:53:18;;;;;;;;;;;-0.50;99.90;;;;;;4765812;30;20070;-77
2021/01/12 07:55:49;;;;;;;13.10;6.63;;;-0.50;99.90;;;;;;4765574;30;19926;-76
2021/01/12 07:58:22;;;;;;;12.57;6.93;;;-0.50;99.90;;;;;;4765339;30;20052;-77
2021/01/12 08:00:49;;;;;;;10.77;6.13;;;-0.50;99.90;;;;;;4751088;30;20138;-77
2021/01/12 08:03:15;;;;;;;14.27;7.78;;;-0.40;99.90;;;;;;4765885;30;20058;-76
2021/01/12 08:05:42;;;;;;;13.98;7.95;;;-0.40;99.90;;;;;;4750496;30;20075;-77
2021/01/12 08:08:10;;;;;;;12.27;7.85;;;-0.40;99.90;;;;;;4739245;30;20052;-78
2021/01/12 08:10:42;;;;;;;13.05;6.88;;;-0.40;99.90;;;;;;4737708;30;20130;-77
2021/01/12 08:13:14;;;;;;;13.90;8.43;;;-0.40;99.90;;;;;;4754581;30;20058;-77
2021/01/12 08:15:47;;;;;;;18.65;8.98;;;-0.40;99.90;;;;;;4768766;30;20048;-77
2021/01/12 08:18:21;;;;;;;12.82;7.10;;;-0.40;99.90;;;;;;4753732;30;20055;-77
2021/01/12 08:20:55;;;;;;;14.43;8.25;;;-0.40;99.90;;;;;;4747243;30;20044;-76
2021/01/12 08:23:36;;;;;;;15.07;8.85;;;-0.30;99.90;;;;;;4736514;30;20059;-79
2021/01/12 08:26:10;;;;;;;13.70;7.82;;;-0.30;99.90;;;;;;4744274;30;20076;-80
2021/01/12 08:28:45;;;;;;;13.93;6.25;;;-0.30;99.90;;;;;;4760019;30;20040;-80
2021/01/12 08:44:27;;;;;;;12.88;7.35;;;-0.20;99.90;;;;;;4691491;30;20474;-80
2021/01/12 08:47:14;;;;;;;12.75;6.90;;;-0.10;99.90;;;;;;4692423;30;20073;-80
2021/01/12 08:50:50;;;;;;;12.98;7.25;;;-0.10;99.90;;;;;;4652787;30;20061;-80
2021/01/12 08:53:19;;;;;;;12.30;6.82;;;-0.10;99.90;;;;;;4657166;30;20059;-80
2021/01/12 08:55:46;;;;;;;12.45;6.78;;;-0.10;99.90;;;;;;4629639;30;20055;-80
2021/01/12 08:58:12;;;;;;;13.32;7.53;;;-0.10;99.90;;;;;;4643168;30;20066;-80
2021/01/12 09:00:41;;;;;;;12.57;7.18;;;-0.10;99.90;;;;;;4655038;30;20551;-80
2021/01/12 09:03:12;;;;;;;12.32;7.35;;;-0.20;99.90;;;;;;4671504;30;20493;-80
2021/01/12 09:05:41;;;;;;;13.32;7.22;;;-0.20;99.90;;;;;;4657343;30;20725;-80
2021/01/12 09:08:12;;;;;;;13.95;7.55;;;-0.20;99.90;;;;;;4655782;30;20058;-80
2021/01/12 09:10:40;;;;;;;17.92;8.20;;;-0.30;99.90;;;;;;4670348;30;20058;-80
2021/01/12 09:13:10;;;;;;;18.52;9.73;;;-0.30;99.90;;;;;;4688186;30;20534;-80
2021/01/12 09:15:39;;;;;;;15.95;9.00;;;-0.30;99.90;;;;;;4689655;30;20057;-80
2021/01/12 09:18:20;;;;;;;13.27;7.63;;;-0.30;99.90;;;;;;4693568;30;20144;-80
2021/01/12 09:22:19;;;;;;;14.82;8.45;;;-0.30;99.90;;;;;;4684119;30;20041;-80
2021/01/12 09:25:33;;;;;;;15.40;8.35;;;-0.40;99.90;;;;;;4711245;30;20072;-80
2021/01/12 09:29:17;;;;;;;17.02;8.98;;;-0.40;99.90;;;;;;4715279;30;20048;-80
2021/01/12 09:32:45;;;;;;;18.05;9.88;;;-0.40;99.90;;;;;;4691006;30;20053;-80
2021/01/12 09:39:40;;;;;;;20.92;12.10;;;-0.30;99.90;;;;;;4719942;30;19973;-80
2021/01/12 09:42:24;;;;;;;19.38;9.35;;;-0.20;99.90;;;;;;4703233;30;20557;-80
2021/01/12 09:44:52;;;;;;;19.70;11.27;;;-0.20;99.90;;;;;;4685995;30;20433;-80
2021/01/12 09:47:24;;;;;;;16.83;9.33;;;-0.20;99.90;;;;;;4684158;30;20077;-80
2021/01/12 09:49:51;;;;;;;17.52;8.68;;;-0.20;99.90;;;;;;4682528;30;20045;-80
2021/01/12 09:52:17;;;;;;;18.63;9.10;;;-0.20;99.90;;;;;;4702085;30;20155;-79
2021/01/12 09:54:46;;;;;;;18.20;9.52;;;-0.20;99.90;;;;;;4689875;30;20201;-80
2021/01/12 09:57:13;;;;;;;19.63;10.25;;;-0.10;99.90;;;;;;4701790;30;20053;-80
2021/01/12 09:59:41;;;;;;;17.35;8.82;;;-0.10;99.90;;;;;;4731265;30;20045;-80
2021/01/12 10:02:09;;;;;;;15.20;8.57;;;-0.10;99.90;;;;;;4753820;30;20419;-81
2021/01/12 10:05:01;;;;;;;17.05;9.18;;;-0.10;99.90;;;;;;4736773;30;20139;-80
2021/01/12 10:07:27;;;;;;;18.20;8.95;;;0.00;99.90;;;;;;4732681;30;20526;-80
2021/01/12 10:09:59;;;;;;;21.58;9.20;;;-0.10;99.90;;;;;;4765719;30;20138;-79
2021/01/12 10:12:25;;;;;;;16.23;9.88;;;-0.10;99.90;;;;;;4739532;30;20048;-83
2021/01/12 10:14:57;;;;;;;13.95;7.53;;;-0.10;99.90;;;;;;4753926;30;20143;-81
2021/01/12 10:17:23;;;;;;;15.15;7.95;;;0.00;99.90;;;;;;4768488;30;20509;-81
2021/01/12 10:19:57;;;;;;;16.58;8.10;;;0.00;99.90;;;;;;4774876;30;20101;-80
2021/01/12 10:22:28;;;;;;;14.98;8.48;;;0.00;99.90;;;;;;4736213;30;20059;-79
2021/01/12 10:24:59;;;;;;;17.75;8.65;;;0.00;99.90;;;;;;4745646;30;20052;-80
2021/01/12 10:27:37;;;;;;;15.60;9.10;;;0.00;99.90;;;;;;4735792;30;20709;-79
2021/01/12 10:30:05;;;;;;;13.45;7.55;;;0.00;99.90;;;;;;4758328;30;20052;-80
2021/01/12 10:32:37;;;;;;;14.73;8.33;;;0.00;99.90;;;;;;4734942;30;20111;-80
2021/01/12 10:35:09;;;;;;;13.75;7.85;;;0.10;99.90;;;;;;4748990;30;20140;-77
2021/01/12 10:37:40;;;;;;;14.93;7.93;;;0.10;99.90;;;;;;4747863;30;20166;-78
2021/01/12 10:40:07;;;;;;;14.13;8.23;;;0.10;99.90;;;;;;4748243;30;20044;-78
2021/01/12 10:42:40;;;;;;;18.95;7.72;;;0.10;99.90;;;;;;4733875;30;20062;-79
2021/01/12 10:45:08;;;;;;;20.58;9.10;;;0.20;99.90;;;;;;4749620;30;20406;-81
2021/01/12 10:47:43;;;;;;;16.15;10.05;;;0.10;99.90;;;;;;4749031;30;20059;-78
2021/01/12 10:50:19;;;;;;;17.67;9.13;;;0.10;99.90;;;;;;4733910;30;20432;-78
2021/01/12 10:52:50;;;;;;;14.52;8.70;;;0.10;99.90;;;;;;4758005;30;20032;-77
2021/01/12 10:55:22;;;;;;;14.30;8.30;;;0.20;99.90;;;;;;4732014;30;20514;-78
2021/01/12 10:57:48;;;;;;;18.08;8.00;;;0.20;99.90;;;;;;4748295;30;20044;-78
2021/01/12 11:00:20;;;;;;;14.27;8.07;;;0.20;99.90;;;;;;4748974;30;20769;-78
2021/01/12 11:02:52;;;;;;;12.05;7.10;;;0.30;99.90;;;;;;4748387;30;20044;-78
2021/01/12 11:05:24;;;;;;;13.85;7.15;;;0.30;99.90;;;;;;4748524;30;20054;-78
2021/01/12 11:07:55;;;;;;;11.55;7.60;;;0.30;99.90;;;;;;4741979;30;20512;-78
2021/01/12 11:10:26;;;;;;;10.77;6.68;;;0.40;99.90;;;;;;4756574;30;20056;-78
2021/01/12 11:13:00;;;;;;;13.10;7.20;;;0.30;99.90;;;;;;4766324;30;20058;-78
2021/01/12 11:15:31;;;;;;;12.52;7.22;;;0.40;99.90;;;;;;4753145;30;20052;-78
2021/01/12 11:18:02;;;;;;;12.35;6.65;;;0.40;99.90;;;;;;4734160;30;20063;-77
2021/01/12 11:20:33;;;;;;;9.80;7.15;;;0.40;99.90;;;;;;4733844;30;20412;-78
2021/01/12 11:23:05;;;;;;;10.35;6.65;;;0.50;99.90;;;;;;4734111;30;20146;-78
2021/01/12 11:25:36;;;;;;;13.60;7.35;;;0.40;99.90;;;;;;4734119;30;20425;-78
2021/01/12 11:28:07;;;;;;;14.00;7.57;;;0.50;99.90;;;;;;4733151;30;20048;-78
2021/01/12 11:30:34;;;;;;;11.38;6.85;;;0.50;99.90;;;;;;4742567;30;20058;-79
2021/01/12 11:33:00;;;;;;;11.50;7.85;;;0.50;99.90;;;;;;4732345;30;20048;-77
2021/01/12 11:35:26;;;;;;;11.25;7.18;;;0.50;99.90;;;;;;4758129;30;20043;-78
2021/01/12 11:37:53;;;;;;;12.55;7.95;;;0.50;99.90;;;;;;4766416;30;20515;-79
2021/01/12 11:40:25;;;;;;;12.27;7.28;;;0.50;99.90;;;;;;4766501;30;20436;-78
2021/01/12 11:42:58;;;;;;;10.32;6.72;;;0.50;99.90;;;;;;4737528;30;20051;-79
2021/01/12 11:45:29;;;;;;;10.77;5.85;;;0.50;99.90;;;;;;4737183;30;20521;-78
2021/01/12 11:48:02;;;;;;;12.50;6.90;;;0.60;99.90;;;;;;4751331;30;20055;-79
2021/01/12 11:50:28;;;;;;;11.13;6.80;;;0.60;99.90;;;;;;4734886;30;20508;-78
2021/01/12 11:52:59;;;;;;;11.18;7.03;;;0.60;99.90;;;;;;4750538;30;20052;-79
2021/01/12 11:55:30;;;;;;;9.77;5.57;;;0.70;99.90;;;;;;4750800;30;20742;-78
2021/01/12 11:58:02;;;;;;;11.45;6.50;;;0.70;99.90;;;;;;4750207;30;20773;-78
2021/01/12 12:00:28;;;;;;;12.88;8.73;;;0.70;99.90;;;;;;4749019;30;20119;-78
2021/01/12 12:03:00;;;;;;;9.80;6.28;;;0.80;99.90;;;;;;4734275;30;20059;-78
2021/01/12 12:05:31;;;;;;;10.13;6.43;;;0.80;99.90;;;;;;4749644;30;20420;-78
2021/01/12 12:08:02;;;;;;;11.02;6.68;;;0.90;99.90;;;;;;4749276;30;20135;-77
2021/01/12 12:10:34;;;;;;;11.18;5.82;;;0.90;99.90;;;;;;4750039;30;20126;-78
2021/01/12 12:13:05;;;;;;;8.70;6.05;;;1.00;99.90;;;;;;4736065;30;20056;-78
2021/01/12 12:15:36;;;;;;;10.32;5.45;;;1.00;99.90;;;;;;4749668;30;20487;-77
2021/01/12 12:18:08;;;;;;;8.68;5.55;;;1.00;99.90;;;;;;4749583;30;20052;-78
2021/01/12 12:20:39;;;;;;;8.48;5.22;;;1.10;99.90;;;;;;4749957;30;20059;-78
2021/01/12 12:23:10;;;;;;;6.57;4.05;;;1.10;99.90;;;;;;4755126;30;20571;-78
2021/01/12 12:25:42;;;;;;;8.32;4.97;;;1.10;99.90;;;;;;4767426;30;20076;-78
2021/01/12 12:28:13;;;;;;;8.80;5.00;;;1.20;99.90;;;;;;4759799;30;20048;-78
2021/01/12 12:30:39;;;;;;;7.90;4.63;;;1.10;99.90;;;;;;4733594;30;20955;-78
2021/01/12 12:33:10;;;;;;;8.02;4.35;;;1.10;99.90;;;;;;4750155;30;20050;-78
2021/01/12 12:35:41;;;;;;;7.45;4.60;;;1.10;99.90;;;;;;4749598;30;20529;-78
2021/01/12 12:38:13;;;;;;;7.18;5.07;;;1.10;99.90;;;;;;4745841;30;20509;-77
2021/01/12 12:40:39;;;;;;;8.60;4.10;;;1.10;99.90;;;;;;4732410;30;20053;-77
2021/01/12 12:43:11;;;;;;;6.95;4.63;;;1.00;99.90;;;;;;4732147;30;20057;-77
2021/01/12 12:45:43;;;;;;;7.55;4.32;;;1.00;99.90;;;;;;4721379;30;20531;-77
2021/01/12 12:48:16;;;;;;;5.90;3.92;;;1.00;99.90;;;;;;4748705;30;20146;-77
2021/01/12 12:50:42;;;;;;;7.05;4.05;;;1.10;99.90;;;;;;4749705;30;20056;-77
2021/01/12 12:53:14;;;;;;;7.78;4.28;;;1.00;99.90;;;;;;4733874;30;20059;-77
2021/01/12 12:55:40;;;;;;;5.82;4.65;;;1.10;99.90;;;;;;4748872;30;20075;-76
2021/01/12 12:58:11;;;;;;;5.22;3.80;;;1.00;99.90;;;;;;4735153;30;20048;-76
2021/01/12 13:00:40;;;;;;;6.47;3.90;;;1.00;99.90;;;;;;4749093;30;20134;-76
2021/01/12 13:03:07;;;;;;;6.03;4.60;;;1.00;99.90;;;;;;4737567;30;20132;-76
2021/01/12 13:05:43;;;;;;;7.25;4.47;;;1.00;99.90;;;;;;4751612;30;20059;-77
2021/01/12 13:08:12;;;;;;;5.72;3.88;;;1.10;99.90;;;;;;4765437;30;20063;-76
2021/01/12 13:10:43;;;;;;;5.78;4.03;;;1.10;99.90;;;;;;4739734;30;20047;-76
2021/01/12 13:13:10;;;;;;;5.63;3.78;;;1.10;99.90;;;;;;4736979;30;20060;-78
2021/01/12 13:15:38;;;;;;;4.88;3.00;;;1.20;99.90;;;;;;4747163;30;20603;-77
2021/01/12 13:18:14;;;;;;;5.95;4.18;;;1.20;99.90;;;;;;4735548;30;20532;-77
2021/01/12 13:20:45;;;;;;;6.32;3.80;;;1.20;99.90;;;;;;4748305;30;20040;-77